Time;durP1;ratioP1;P1;durP2;ratioP2;P2;SDS_P1;SDS_P2;PMS_P1;PMS_P2;Temp;Humidity;BMP_temperature;BMP_pressure;BME280_temperature;BME280_humidity;BME280_pressure;Samples;Min_cycle;Max_cycle;Signal;HPM_P1;HPM_P2
2023/12/13 00:02:16;;;;;;;7.90;1.70;;;;;;;;;;5073793;28;20418;-39
2023/12/13 00:04:43;;;;;;;17.17;5.70;;;;;;;;;;5073695;28;20388;-39
2023/12/13 00:07:10;;;;;;;14.40;7.03;;;;;;;;;;5073840;28;20388;-39
2023/12/13 00:09:38;;;;;;;15.70;7.40;;;;;;;;;;5073819;28;20391;-39
2023/12/13 00:12:05;;;;;;;21.15;6.38;;;;;;;;;;5068400;28;20391;-38
2023/12/13 00:14:32;;;;;;;15.55;6.43;;;;;;;;;;5067015;28;20400;-38
2023/12/13 00:16:59;;;;;;;19.35;5.15;;;;;;;;;;5069545;28;20391;-37
2023/12/13 00:19:26;;;;;;;15.68;4.95;;;;;;;;;;5078726;28;20443;-37
2023/12/13 00:21:53;;;;;;;14.43;4.60;;;;;;;;;;5083040;28;20415;-38
2023/12/13 00:24:20;;;;;;;14.80;3.90;;;;;;;;;;5072983;28;20475;-37
2023/12/13 00:26:49;;;;;;;14.50;3.50;;;;;;;;;;5073757;28;20437;-38
2023/12/13 00:29:16;;;;;;;14.57;3.15;;;;;;;;;;5083777;28;20515;-37
2023/12/13 00:31:43;;;;;;;13.32;2.58;;;;;;;;;;5070142;28;20393;-38
2023/12/13 00:34:10;;;;;;;23.73;5.50;;;;;;;;;;5067560;28;20449;-37
2023/12/13 00:36:37;;;;;;;23.70;6.18;;;;;;;;;;5064392;28;20428;-37
2023/12/13 00:39:05;;;;;;;23.00;5.40;;;;;;;;;;5061574;28;20436;-37
2023/12/13 00:41:32;;;;;;;16.03;3.50;;;;;;;;;;5067780;28;20564;-37
2023/12/13 00:43:59;;;;;;;21.13;3.97;;;;;;;;;;5062083;28;20421;-37
2023/12/13 00:46:26;;;;;;;15.02;4.95;;;;;;;;;;5061742;28;20406;-37
2023/12/13 00:48:53;;;;;;;11.60;3.50;;;;;;;;;;5059427;28;20401;-37
2023/12/13 00:51:21;;;;;;;14.00;2.80;;;;;;;;;;5072833;28;20459;-37
2023/12/13 00:53:49;;;;;;;14.40;3.75;;;;;;;;;;5066908;28;20399;-37
2023/12/13 00:56:16;;;;;;;16.45;3.38;;;;;;;;;;5060891;28;20490;-38
2023/12/13 00:58:45;;;;;;;12.95;2.60;;;;;;;;;;5064863;28;20406;-38
2023/12/13 01:01:12;;;;;;;13.37;2.23;;;;;;;;;;5068065;28;20417;-38
2023/12/13 01:03:39;;;;;;;12.05;2.05;;;;;;;;;;5062216;28;20412;-39
2023/12/13 01:06:09;;;;;;;13.60;2.42;;;;;;;;;;5060649;28;20471;-39
2023/12/13 01:08:39;;;;;;;13.13;3.00;;;;;;;;;;5069177;28;20409;-39
2023/12/13 01:11:10;;;;;;;16.83;2.90;;;;;;;;;;5059176;28;20388;-39
2023/12/13 01:13:37;;;;;;;11.85;2.85;;;;;;;;;;5057847;28;20486;-41
2023/12/13 01:16:04;;;;;;;16.15;2.80;;;;;;;;;;5070365;28;20396;-43
2023/12/13 01:18:31;;;;;;;13.85;2.63;;;;;;;;;;5072315;28;20727;-44
2023/12/13 01:20:58;;;;;;;13.70;2.83;;;;;;;;;;5071860;28;20420;-44
2023/12/13 01:23:27;;;;;;;17.10;3.73;;;;;;;;;;5072162;28;20961;-44
2023/12/13 01:25:54;;;;;;;14.25;3.80;;;;;;;;;;5071930;28;20878;-43
2023/12/13 01:28:21;;;;;;;17.07;4.10;;;;;;;;;;5053964;28;20403;-43
2023/12/13 01:30:48;;;;;;;9.82;3.63;;;;;;;;;;5071789;28;20464;-44
2023/12/13 01:33:15;;;;;;;18.63;4.88;;;;;;;;;;5071971;28;20905;-43
2023/12/13 01:35:42;;;;;;;16.37;6.70;;;;;;;;;;5070318;28;20497;-44
2023/12/13 01:38:09;;;;;;;23.52;10.52;;;;;;;;;;5068446;28;20517;-43
2023/12/13 01:40:36;;;;;;;35.95;19.05;;;;;;;;;;5071577;28;20506;-43
2023/12/13 01:43:03;;;;;;;33.83;19.92;;;;;;;;;;5071630;28;20881;-43
2023/12/13 01:45:30;;;;;;;33.95;12.95;;;;;;;;;;5053141;28;20400;-45
2023/12/13 01:47:57;;;;;;;35.20;13.88;;;;;;;;;;5069080;28;20487;-43
2023/12/13 01:50:25;;;;;;;25.30;11.80;;;;;;;;;;5069079;28;20395;-44
2023/12/13 01:52:53;;;;;;;29.33;11.05;;;;;;;;;;5058197;28;20397;-46
2023/12/13 01:55:20;;;;;;;23.17;8.00;;;;;;;;;;5066809;28;20396;-44
2023/12/13 01:57:48;;;;;;;23.77;7.57;;;;;;;;;;5071212;28;20395;-44
2023/12/13 02:00:15;;;;;;;19.85;5.70;;;;;;;;;;5070878;28;20419;-44
2023/12/13 02:02:42;;;;;;;23.00;5.47;;;;;;;;;;5071516;28;20408;-44
2023/12/13 02:05:09;;;;;;;16.08;4.63;;;;;;;;;;5050344;28;20428;-44
2023/12/13 02:07:37;;;;;;;16.13;3.90;;;;;;;;;;5071423;28;20457;-44
2023/12/13 02:10:06;;;;;;;15.07;4.07;;;;;;;;;;5071024;28;20887;-44
2023/12/13 02:12:33;;;;;;;21.25;4.32;;;;;;;;;;5071055;28;20404;-44
2023/12/13 02:15:00;;;;;;;25.33;4.55;;;;;;;;;;5070856;28;20562;-44
2023/12/13 02:17:27;;;;;;;25.17;4.35;;;;;;;;;;5070507;28;20396;-44
2023/12/13 02:19:54;;;;;;;22.73;4.80;;;;;;;;;;5070478;28;20487;-44
2023/12/13 02:22:21;;;;;;;26.23;4.35;;;;;;;;;;5069487;28;21310;-44
2023/12/13 02:24:49;;;;;;;26.15;4.60;;;;;;;;;;5070006;28;20392;-44
2023/12/13 02:27:16;;;;;;;25.90;4.50;;;;;;;;;;5052092;28;20411;-44
2023/12/13 02:29:47;;;;;;;16.53;4.53;;;;;;;;;;5070565;28;20442;-44
2023/12/13 02:32:14;;;;;;;15.63;3.97;;;;;;;;;;5070426;28;20392;-44
2023/12/13 02:34:41;;;;;;;15.52;4.10;;;;;;;;;;5070298;28;20479;-44
2023/12/13 02:37:08;;;;;;;15.52;4.00;;;;;;;;;;5070783;28;20391;-44
2023/12/13 02:39:35;;;;;;;22.45;4.10;;;;;;;;;;5070194;28;20403;-44
2023/12/13 02:42:02;;;;;;;17.40;4.00;;;;;;;;;;5075577;28;20494;-44
2023/12/13 02:44:29;;;;;;;22.25;4.35;;;;;;;;;;5070001;28;20757;-44
2023/12/13 02:46:58;;;;;;;18.50;3.83;;;;;;;;;;5070374;28;20885;-43
2023/12/13 02:49:26;;;;;;;15.55;4.10;;;;;;;;;;5069875;28;20432;-44
2023/12/13 02:51:53;;;;;;;22.33;3.50;;;;;;;;;;5069965;28;20407;-44
2023/12/13 02:54:20;;;;;;;24.52;3.60;;;;;;;;;;5071792;28;20400;-44
2023/12/13 02:56:47;;;;;;;20.42;3.60;;;;;;;;;;5071748;28;20391;-43
2023/12/13 02:59:14;;;;;;;13.30;2.90;;;;;;;;;;5069959;28;20403;-43
2023/12/13 03:01:41;;;;;;;17.50;3.00;;;;;;;;;;5070453;28;20410;-43
2023/12/13 03:04:08;;;;;;;17.98;3.10;;;;;;;;;;5070712;28;20461;-43
2023/12/13 03:06:35;;;;;;;13.38;3.00;;;;;;;;;;5070644;28;20372;-44
2023/12/13 03:09:02;;;;;;;19.80;2.85;;;;;;;;;;5070682;28;20392;-44
2023/12/13 03:11:30;;;;;;;14.23;2.70;;;;;;;;;;5070612;28;20384;-43
2023/12/13 03:13:56;;;;;;;13.95;2.60;;;;;;;;;;5070353;28;20475;-43
2023/12/13 03:16:24;;;;;;;19.52;2.42;;;;;;;;;;5070478;28;20388;-44
2023/12/13 03:18:51;;;;;;;17.42;2.50;;;;;;;;;;5070479;28;20757;-42
2023/12/13 03:21:18;;;;;;;16.60;2.33;;;;;;;;;;5070394;28;20429;-43
2023/12/13 03:23:45;;;;;;;11.35;1.95;;;;;;;;;;5070431;28;20431;-43
2023/12/13 03:26:12;;;;;;;15.40;2.25;;;;;;;;;;5052199;28;20412;-43
2023/12/13 03:28:39;;;;;;;18.17;2.33;;;;;;;;;;5070418;28;20881;-44
2023/12/13 03:31:10;;;;;;;13.13;2.30;;;;;;;;;;5070396;28;20888;-43
2023/12/13 03:33:37;;;;;;;10.25;1.98;;;;;;;;;;5074574;28;20454;-44
2023/12/13 03:36:04;;;;;;;11.60;1.90;;;;;;;;;;5076926;28;20387;-44
2023/12/13 03:38:31;;;;;;;10.02;1.55;;;;;;;;;;5077025;28;20383;-45
2023/12/13 03:40:58;;;;;;;7.70;1.88;;;;;;;;;;5076877;28;20786;-44
2023/12/13 03:43:25;;;;;;;13.20;2.20;;;;;;;;;;5076962;28;20392;-43
2023/12/13 03:45:52;;;;;;;10.65;1.80;;;;;;;;;;5076678;28;20737;-43
2023/12/13 03:48:19;;;;;;;13.65;2.53;;;;;;;;;;5076939;28;20387;-43
2023/12/13 03:50:46;;;;;;;13.57;2.05;;;;;;;;;;5076821;28;20428;-44
2023/12/13 03:53:13;;;;;;;9.38;2.20;;;;;;;;;;5076888;28;20381;-43
2023/12/13 03:55:40;;;;;;;15.07;2.20;;;;;;;;;;5076688;28;20379;-43
2023/12/13 03:58:07;;;;;;;13.80;2.60;;;;;;;;;;5076824;28;20415;-43
2023/12/13 04:00:34;;;;;;;13.05;2.40;;;;;;;;;;5076662;28;20411;-44
2023/12/13 04:03:01;;;;;;;10.95;2.03;;;;;;;;;;5076778;28;20911;-44
2023/12/13 04:05:28;;;;;;;13.27;2.10;;;;;;;;;;5076513;28;20737;-44
2023/12/13 04:07:55;;;;;;;14.65;2.47;;;;;;;;;;5076736;28;20383;-44
2023/12/13 04:10:22;;;;;;;14.90;2.50;;;;;;;;;;5076710;28;20376;-43
2023/12/13 04:12:49;;;;;;;18.48;2.40;;;;;;;;;;5076627;28;20376;-43
2023/12/13 04:15:16;;;;;;;11.05;2.40;;;;;;;;;;5076512;28;21090;-43
2023/12/13 04:17:43;;;;;;;10.60;2.00;;;;;;;;;;5076582;28;20395;-43
2023/12/13 04:20:10;;;;;;;11.38;1.85;;;;;;;;;;5076566;28;20375;-43
2023/12/13 04:22:37;;;;;;;19.23;2.72;;;;;;;;;;5076613;28;20391;-43
2023/12/13 04:25:05;;;;;;;13.90;2.67;;;;;;;;;;5076424;28;20394;-43
2023/12/13 04:27:32;;;;;;;16.60;2.50;;;;;;;;;;5076634;28;20437;-43
2023/12/13 04:29:59;;;;;;;12.90;2.38;;;;;;;;;;5076512;28;21098;-44
2023/12/13 04:32:26;;;;;;;13.63;2.60;;;;;;;;;;5076325;28;20406;-43
2023/12/13 04:34:53;;;;;;;8.90;2.05;;;;;;;;;;5076429;28;20385;-44
2023/12/13 04:37:20;;;;;;;12.02;2.20;;;;;;;;;;5076401;28;20441;-43
2023/12/13 04:39:47;;;;;;;15.87;2.80;;;;;;;;;;5076510;28;20382;-44
2023/12/13 04:42:14;;;;;;;15.02;2.60;;;;;;;;;;5076354;28;20411;-44
2023/12/13 04:44:41;;;;;;;13.48;2.20;;;;;;;;;;5073882;28;20386;-43
2023/12/13 04:47:08;;;;;;;13.80;2.27;;;;;;;;;;5073215;28;20387;-44
2023/12/13 04:49:35;;;;;;;12.50;2.50;;;;;;;;;;5073000;28;20386;-44
2023/12/13 04:52:03;;;;;;;10.77;2.10;;;;;;;;;;5073155;28;20383;-43
2023/12/13 04:54:30;;;;;;;12.15;2.50;;;;;;;;;;5072942;28;20852;-44
2023/12/13 04:56:57;;;;;;;12.80;2.30;;;;;;;;;;5073074;28;20411;-43
2023/12/13 04:59:24;;;;;;;14.27;2.20;;;;;;;;;;5073045;28;20376;-43
2023/12/13 05:01:51;;;;;;;12.90;2.40;;;;;;;;;;5072893;28;20408;-44
2023/12/13 05:04:18;;;;;;;10.98;2.50;;;;;;;;;;5072858;28;20881;-44
2023/12/13 05:06:45;;;;;;;11.90;2.65;;;;;;;;;;5072855;28;20448;-43
2023/12/13 05:09:12;;;;;;;12.52;2.38;;;;;;;;;;5054932;28;20522;-43
2023/12/13 05:11:39;;;;;;;13.82;2.33;;;;;;;;;;5072920;28;20391;-43
2023/12/13 05:14:06;;;;;;;12.48;2.30;;;;;;;;;;5072542;28;20438;-44
2023/12/13 05:16:33;;;;;;;10.95;2.42;;;;;;;;;;5072533;28;20388;-43
2023/12/13 05:19:00;;;;;;;12.70;2.50;;;;;;;;;;5072572;28;20858;-44
2023/12/13 05:21:28;;;;;;;15.27;2.15;;;;;;;;;;5072521;28;20420;-44
2023/12/13 05:23:55;;;;;;;13.30;2.63;;;;;;;;;;5072444;28;20857;-44
2023/12/13 05:26:22;;;;;;;10.63;2.00;;;;;;;;;;5072444;28;20380;-43
2023/12/13 05:28:49;;;;;;;11.45;2.55;;;;;;;;;;5072421;28;20441;-43
2023/12/13 05:31:19;;;;;;;10.70;2.13;;;;;;;;;;5072445;28;20379;-44
2023/12/13 05:33:47;;;;;;;10.50;2.20;;;;;;;;;;5072178;28;20825;-43
2023/12/13 05:36:14;;;;;;;14.98;2.40;;;;;;;;;;5072260;28;20414;-43
2023/12/13 05:38:41;;;;;;;12.48;2.22;;;;;;;;;;5072126;28;20387;-43
2023/12/13 05:41:08;;;;;;;14.27;2.15;;;;;;;;;;5072163;28;20835;-44
2023/12/13 05:43:35;;;;;;;13.23;2.50;;;;;;;;;;5072455;28;20437;-44
2023/12/13 05:46:06;;;;;;;9.80;1.80;;;;;;;;;;5072021;28;20403;-43
2023/12/13 05:48:33;;;;;;;13.65;2.17;;;;;;;;;;5072086;28;20380;-43
2023/12/13 05:51:00;;;;;;;10.20;2.17;;;;;;;;;;5071979;28;20410;-44
2023/12/13 05:53:31;;;;;;;8.13;2.00;;;;;;;;;;5071962;28;21002;-43
2023/12/13 05:56:00;;;;;;;10.82;2.30;;;;;;;;;;5070676;28;20509;-43
2023/12/13 05:58:27;;;;;;;14.30;2.10;;;;;;;;;;5071705;28;20383;-43
2023/12/13 06:00:54;;;;;;;14.05;2.70;;;;;;;;;;5069891;28;20498;-46
2023/12/13 06:03:21;;;;;;;13.27;2.65;;;;;;;;;;5051760;28;20403;-43
2023/12/13 06:05:48;;;;;;;12.27;2.17;;;;;;;;;;5051607;28;20381;-43
2023/12/13 06:08:15;;;;;;;12.48;2.20;;;;;;;;;;5051605;28;20429;-43
2023/12/13 06:10:41;;;;;;;10.25;2.20;;;;;;;;;;5051581;28;20750;-43
2023/12/13 06:13:08;;;;;;;12.43;2.20;;;;;;;;;;5051632;28;20377;-44
2023/12/13 06:15:37;;;;;;;11.38;2.38;;;;;;;;;;5051481;28;20384;-43
2023/12/13 06:18:04;;;;;;;11.80;2.58;;;;;;;;;;5051506;28;20416;-43
2023/12/13 06:20:31;;;;;;;10.20;1.90;;;;;;;;;;5051355;28;20393;-43
2023/12/13 06:22:58;;;;;;;13.43;2.70;;;;;;;;;;5051492;28;20484;-43
2023/12/13 06:25:25;;;;;;;10.70;2.35;;;;;;;;;;5051215;28;20417;-43
2023/12/13 06:27:52;;;;;;;10.27;2.40;;;;;;;;;;5049920;28;20386;-44
2023/12/13 06:30:18;;;;;;;13.02;2.40;;;;;;;;;;5051254;28;20489;-43
2023/12/13 06:32:45;;;;;;;11.07;2.35;;;;;;;;;;5050900;28;20425;-43
2023/12/13 06:35:13;;;;;;;10.20;2.20;;;;;;;;;;5051036;28;20382;-43
2023/12/13 06:37:41;;;;;;;9.43;2.30;;;;;;;;;;5050953;28;20400;-43
2023/12/13 06:40:08;;;;;;;11.07;2.30;;;;;;;;;;5050911;28;20483;-43
2023/12/13 06:42:35;;;;;;;13.85;2.40;;;;;;;;;;5051010;28;20523;-43
2023/12/13 06:45:03;;;;;;;15.93;2.42;;;;;;;;;;5050912;28;20763;-43
2023/12/13 06:47:29;;;;;;;12.40;2.38;;;;;;;;;;5050949;28;20725;-43
2023/12/13 06:49:56;;;;;;;12.57;2.25;;;;;;;;;;5050888;28;20382;-43
2023/12/13 06:52:23;;;;;;;8.90;1.90;;;;;;;;;;5050950;28;20500;-44
2023/12/13 06:54:50;;;;;;;10.77;2.30;;;;;;;;;;5033211;28;20377;-43
2023/12/13 06:57:17;;;;;;;10.13;1.88;;;;;;;;;;5050728;28;20388;-43
2023/12/13 06:59:44;;;;;;;8.98;2.03;;;;;;;;;;5050793;28;20377;-43
2023/12/13 07:02:11;;;;;;;12.07;2.10;;;;;;;;;;5050559;28;20413;-44
2023/12/13 07:04:38;;;;;;;10.10;2.33;;;;;;;;;;5050578;28;20389;-43
2023/12/13 07:07:05;;;;;;;10.23;2.20;;;;;;;;;;5051410;28;20431;-43
2023/12/13 07:09:32;;;;;;;9.18;2.17;;;;;;;;;;5070642;28;20383;-44
2023/12/13 07:11:59;;;;;;;8.88;2.10;;;;;;;;;;5052477;28;20394;-43
2023/12/13 07:14:26;;;;;;;13.20;2.30;;;;;;;;;;5070311;28;20392;-43
2023/12/13 07:16:53;;;;;;;11.88;2.13;;;;;;;;;;5070606;28;20475;-43
2023/12/13 07:19:20;;;;;;;13.00;2.15;;;;;;;;;;5070619;28;20399;-43
2023/12/13 07:21:47;;;;;;;9.73;2.05;;;;;;;;;;5070444;28;20506;-43
2023/12/13 07:24:14;;;;;;;12.93;2.15;;;;;;;;;;5070355;28;20475;-44
2023/12/13 07:26:41;;;;;;;9.93;2.25;;;;;;;;;;5070451;28;20570;-43
2023/12/13 07:29:08;;;;;;;10.52;2.10;;;;;;;;;;5070416;28;20379;-43
2023/12/13 07:31:41;;;;;;;12.15;2.47;;;;;;;;;;5070210;28;20383;-44
2023/12/13 07:34:11;;;;;;;9.00;2.03;;;;;;;;;;5070053;28;20415;-43
2023/12/13 07:36:42;;;;;;;8.90;2.25;;;;;;;;;;5070330;28;20883;-44
2023/12/13 07:39:09;;;;;;;14.10;2.80;;;;;;;;;;5070384;28;20463;-43
2023/12/13 07:41:36;;;;;;;7.05;1.90;;;;;;;;;;5070287;28;20419;-43
2023/12/13 07:44:03;;;;;;;9.43;2.13;;;;;;;;;;5070206;28;20476;-43
2023/12/13 07:46:30;;;;;;;10.48;2.15;;;;;;;;;;5070220;28;20980;-43
2023/12/13 07:49:03;;;;;;;11.75;2.00;;;;;;;;;;5070178;28;20403;-43
2023/12/13 07:51:47;;;;;;;10.13;2.30;;;;;;;;;;5070041;28;20441;-43
2023/12/13 07:54:16;;;;;;;10.25;2.00;;;;;;;;;;5070039;28;20888;-43
2023/12/13 07:56:45;;;;;;;9.63;2.20;;;;;;;;;;5069992;28;20865;-43
2023/12/13 07:59:12;;;;;;;8.17;2.00;;;;;;;;;;5069931;28;20375;-44
2023/12/13 08:01:39;;;;;;;10.63;2.10;;;;;;;;;;5069992;28;20437;-43
2023/12/13 08:04:06;;;;;;;10.27;2.15;;;;;;;;;;5051751;28;20781;-43
2023/12/13 08:06:34;;;;;;;13.52;2.20;;;;;;;;;;5069843;28;20380;-43
2023/12/13 08:09:02;;;;;;;9.40;2.00;;;;;;;;;;5070061;28;20391;-43
2023/12/13 08:11:29;;;;;;;8.73;1.92;;;;;;;;;;5070048;28;20387;-43
2023/12/13 08:13:57;;;;;;;9.20;2.08;;;;;;;;;;5069877;28;20430;-43
2023/12/13 08:16:24;;;;;;;10.23;2.05;;;;;;;;;;5069912;28;20384;-43
2023/12/13 08:18:51;;;;;;;10.45;2.20;;;;;;;;;;5069925;28;20391;-43
2023/12/13 08:21:19;;;;;;;9.70;2.20;;;;;;;;;;5073299;28;20411;-43
2023/12/13 08:23:46;;;;;;;11.05;2.20;;;;;;;;;;5073472;28;20990;-43
2023/12/13 08:26:13;;;;;;;8.77;2.05;;;;;;;;;;5073482;28;20378;-43
2023/12/13 08:28:40;;;;;;;10.85;2.03;;;;;;;;;;5073571;28;20444;-43
2023/12/13 08:31:08;;;;;;;10.05;2.05;;;;;;;;;;5073551;28;20470;-43
2023/12/13 08:33:35;;;;;;;13.38;2.10;;;;;;;;;;5073302;28;20416;-43
2023/12/13 08:36:04;;;;;;;9.68;1.80;;;;;;;;;;5073319;28;20376;-43
2023/12/13 08:38:31;;;;;;;10.07;2.07;;;;;;;;;;5073268;28;20727;-43
2023/12/13 08:40:58;;;;;;;10.77;2.08;;;;;;;;;;5055248;28;20414;-43
2023/12/13 08:43:25;;;;;;;9.05;1.90;;;;;;;;;;5073316;28;20432;-43
2023/12/13 08:45:52;;;;;;;10.95;1.83;;;;;;;;;;5073185;28;20387;-43
2023/12/13 08:48:19;;;;;;;12.63;2.27;;;;;;;;;;5073175;28;20376;-43
2023/12/13 08:50:46;;;;;;;8.98;1.67;;;;;;;;;;5073210;28;20433;-43
2023/12/13 08:53:13;;;;;;;9.02;2.30;;;;;;;;;;5073161;28;20743;-43
2023/12/13 08:55:40;;;;;;;11.60;2.23;;;;;;;;;;5072993;28;20383;-43
2023/12/13 08:58:07;;;;;;;9.00;1.92;;;;;;;;;;5072999;28;21230;-43
2023/12/13 09:00:34;;;;;;;9.23;1.98;;;;;;;;;;5072788;28;20745;-43
2023/12/13 09:03:01;;;;;;;8.23;2.03;;;;;;;;;;5072869;28;20390;-43
2023/12/13 09:05:28;;;;;;;13.60;1.85;;;;;;;;;;5072799;28;20419;-43
2023/12/13 09:07:55;;;;;;;8.70;1.40;;;;;;;;;;5072960;28;20383;-43
2023/12/13 09:10:23;;;;;;;9.23;1.80;;;;;;;;;;5072848;28;20726;-43
2023/12/13 09:12:50;;;;;;;11.85;2.00;;;;;;;;;;5072796;28;20407;-43
2023/12/13 09:15:18;;;;;;;8.50;1.70;;;;;;;;;;5072706;28;20476;-45
2023/12/13 09:17:48;;;;;;;9.85;1.60;;;;;;;;;;5072814;28;20857;-43
2023/12/13 09:20:15;;;;;;;11.00;1.90;;;;;;;;;;5072686;28;20383;-43
2023/12/13 09:22:42;;;;;;;8.52;1.90;;;;;;;;;;5072605;28;20496;-43
2023/12/13 09:25:14;;;;;;;9.35;1.80;;;;;;;;;;5072469;28;20426;-43
2023/12/13 09:27:41;;;;;;;9.68;2.08;;;;;;;;;;5072309;28;20788;-43
2023/12/13 09:30:13;;;;;;;8.30;1.90;;;;;;;;;;5072201;28;20392;-44
2023/12/13 09:32:43;;;;;;;12.05;2.05;;;;;;;;;;5072113;28;20391;-43
2023/12/13 09:35:10;;;;;;;11.00;1.92;;;;;;;;;;5072247;28;20513;-43
2023/12/13 09:37:37;;;;;;;12.15;2.00;;;;;;;;;;5072405;28;20489;-43
2023/12/13 09:40:04;;;;;;;18.33;2.10;;;;;;;;;;5072368;28;20439;-43
2023/12/13 09:42:31;;;;;;;11.93;2.17;;;;;;;;;;5071280;28;20497;-44
2023/12/13 09:44:59;;;;;;;15.98;2.03;;;;;;;;;;5065868;28;20396;-43
2023/12/13 09:47:28;;;;;;;11.80;2.13;;;;;;;;;;5071518;28;20387;-43
2023/12/13 09:49:56;;;;;;;9.13;2.10;;;;;;;;;;5062909;28;20402;-43
2023/12/13 09:52:23;;;;;;;13.98;2.08;;;;;;;;;;5071793;28;20387;-43
2023/12/13 09:54:50;;;;;;;11.10;1.90;;;;;;;;;;5087728;28;20398;-42
2023/12/13 09:57:17;;;;;;;9.40;1.63;;;;;;;;;;5091961;28;20386;-43
2023/12/13 09:59:45;;;;;;;12.90;1.80;;;;;;;;;;5092132;28;20382;-43
2023/12/13 10:02:17;;;;;;;14.15;2.15;;;;;;;;;;5073151;28;20420;-43
2023/12/13 10:04:44;;;;;;;15.77;2.17;;;;;;;;;;5071014;28;20956;-43
2023/12/13 10:07:12;;;;;;;11.63;1.92;;;;;;;;;;5053041;28;20395;-42
2023/12/13 10:09:39;;;;;;;10.95;1.88;;;;;;;;;;5071093;28;20421;-43
2023/12/13 10:12:10;;;;;;;13.05;1.67;;;;;;;;;;5067173;28;20396;-42
2023/12/13 10:14:37;;;;;;;13.38;1.90;;;;;;;;;;5070868;28;20406;-43
2023/12/13 10:17:04;;;;;;;9.20;1.65;;;;;;;;;;5070192;28;20437;-43
2023/12/13 10:19:35;;;;;;;11.65;1.98;;;;;;;;;;5064020;28;20427;-43
2023/12/13 10:22:05;;;;;;;14.70;2.20;;;;;;;;;;5070164;28;20873;-43
2023/12/13 10:24:32;;;;;;;14.30;2.40;;;;;;;;;;5070528;28;20410;-43
2023/12/13 10:26:59;;;;;;;13.43;2.00;;;;;;;;;;5069797;28;20388;-43
2023/12/13 10:29:26;;;;;;;12.07;2.10;;;;;;;;;;5068274;28;20896;-43
2023/12/13 10:31:53;;;;;;;8.70;1.90;;;;;;;;;;5069591;28;20469;-43
2023/12/13 10:34:20;;;;;;;11.97;1.90;;;;;;;;;;5066152;28;20469;-45
2023/12/13 10:36:48;;;;;;;18.98;2.03;;;;;;;;;;5066381;28;20844;-44
2023/12/13 10:39:16;;;;;;;14.13;2.03;;;;;;;;;;5070886;28;20773;-44
2023/12/13 10:41:44;;;;;;;23.27;2.67;;;;;;;;;;5070793;28;20411;-45
2023/12/13 10:44:18;;;;;;;17.15;2.20;;;;;;;;;;5070569;28;20388;-44
2023/12/13 10:46:46;;;;;;;14.43;2.05;;;;;;;;;;5070863;28;20383;-44
2023/12/13 10:49:20;;;;;;;16.23;2.60;;;;;;;;;;5071009;28;20376;-45
2023/12/13 10:51:48;;;;;;;14.57;2.33;;;;;;;;;;5070982;28;20895;-45
2023/12/13 10:54:15;;;;;;;14.57;2.20;;;;;;;;;;5070879;28;20745;-45
2023/12/13 10:56:42;;;;;;;15.13;2.15;;;;;;;;;;5070912;28;20388;-45
2023/12/13 10:59:10;;;;;;;12.43;2.28;;;;;;;;;;5070869;28;20379;-44
2023/12/13 11:01:41;;;;;;;16.37;2.50;;;;;;;;;;5070793;28;20451;-44
2023/12/13 11:04:12;;;;;;;18.98;2.83;;;;;;;;;;5070524;28;20383;-45
2023/12/13 11:06:39;;;;;;;14.52;2.33;;;;;;;;;;5070638;28;20430;-45
2023/12/13 11:09:13;;;;;;;10.05;1.92;;;;;;;;;;5070773;28;20418;-44
2023/12/13 11:11:42;;;;;;;11.20;1.95;;;;;;;;;;5070571;28;20383;-44
2023/12/13 11:14:09;;;;;;;11.35;2.03;;;;;;;;;;5070402;28;20376;-44
2023/12/13 11:16:40;;;;;;;11.13;2.03;;;;;;;;;;5070633;28;20469;-44
2023/12/13 11:19:11;;;;;;;9.55;1.90;;;;;;;;;;5070604;28;20379;-45
2023/12/13 11:21:40;;;;;;;10.27;2.15;;;;;;;;;;5070317;28;20781;-45
2023/12/13 11:24:16;;;;;;;8.77;1.98;;;;;;;;;;5070319;28;20475;-44
2023/12/13 11:26:46;;;;;;;11.90;2.00;;;;;;;;;;5070334;28;20387;-44
2023/12/13 11:29:32;;;;;;;9.52;2.15;;;;;;;;;;5070365;28;20387;-45
2023/12/13 11:32:00;;;;;;;9.95;1.95;;;;;;;;;;5070339;28;20741;-44
2023/12/13 11:34:33;;;;;;;13.48;2.03;;;;;;;;;;5070086;28;20451;-44
2023/12/13 11:37:04;;;;;;;11.27;2.17;;;;;;;;;;5070418;28;20387;-44
2023/12/13 11:39:32;;;;;;;12.20;2.38;;;;;;;;;;5070419;28;21171;-44
2023/12/13 11:42:00;;;;;;;13.25;2.00;;;;;;;;;;5070114;28;20816;-44
2023/12/13 11:44:31;;;;;;;8.38;1.92;;;;;;;;;;5070288;28;20383;-45
2023/12/13 11:46:59;;;;;;;8.70;1.85;;;;;;;;;;5070280;28;20470;-45
2023/12/13 11:49:26;;;;;;;13.32;2.50;;;;;;;;;;5070348;28;20426;-45
2023/12/13 11:51:53;;;;;;;14.57;3.50;;;;;;;;;;5070310;28;20387;-44
2023/12/13 11:54:20;;;;;;;18.17;4.03;;;;;;;;;;5072257;28;20384;-44
2023/12/13 11:56:48;;;;;;;11.32;2.65;;;;;;;;;;5074294;28;20422;-44
2023/12/13 11:59:15;;;;;;;11.40;2.67;;;;;;;;;;5074326;28;20505;-45
2023/12/13 12:01:41;;;;;;;13.75;2.40;;;;;;;;;;5074185;28;20506;-45
2023/12/13 12:04:09;;;;;;;10.13;2.35;;;;;;;;;;5074044;28;20760;-45
2023/12/13 12:06:36;;;;;;;13.00;2.70;;;;;;;;;;5074133;28;20376;-45
2023/12/13 12:09:05;;;;;;;14.18;2.20;;;;;;;;;;5074077;28;20416;-44
2023/12/13 12:11:33;;;;;;;15.03;2.33;;;;;;;;;;5073828;28;20391;-44
2023/12/13 12:14:00;;;;;;;10.82;2.00;;;;;;;;;;5073887;28;20387;-44
2023/12/13 12:16:28;;;;;;;14.00;2.10;;;;;;;;;;5073725;28;20396;-45
2023/12/13 12:18:55;;;;;;;13.50;2.15;;;;;;;;;;5073717;28;20415;-45
2023/12/13 12:21:22;;;;;;;11.13;2.00;;;;;;;;;;5073768;28;21025;-45
2023/12/13 12:23:50;;;;;;;13.05;2.13;;;;;;;;;;5073674;28;20745;-44
2023/12/13 12:26:17;;;;;;;10.33;2.40;;;;;;;;;;5073733;28;20409;-45
2023/12/13 12:28:44;;;;;;;10.23;2.30;;;;;;;;;;5073601;28;20384;-45
2023/12/13 12:31:11;;;;;;;13.65;2.22;;;;;;;;;;5073594;28;20788;-44
2023/12/13 12:33:38;;;;;;;13.93;2.27;;;;;;;;;;5073297;28;20411;-45
2023/12/13 12:36:07;;;;;;;11.77;2.05;;;;;;;;;;5073554;28;20390;-45
2023/12/13 12:38:34;;;;;;;9.73;1.98;;;;;;;;;;5073483;28;20445;-47
2023/12/13 12:41:01;;;;;;;13.48;2.10;;;;;;;;;;5073319;28;20418;-44
2023/12/13 12:43:28;;;;;;;8.57;1.80;;;;;;;;;;5073363;28;20384;-45
2023/12/13 12:45:55;;;;;;;10.40;2.13;;;;;;;;;;5073231;28;20376;-44
2023/12/13 12:48:22;;;;;;;13.13;2.05;;;;;;;;;;5073290;28;20375;-45
2023/12/13 12:50:49;;;;;;;7.28;1.80;;;;;;;;;;5073335;28;20467;-44
2023/12/13 12:53:16;;;;;;;10.87;1.97;;;;;;;;;;5073032;28;20475;-45
2023/12/13 12:55:43;;;;;;;12.13;2.17;;;;;;;;;;5072945;28;20390;-45
2023/12/13 12:58:10;;;;;;;13.32;2.20;;;;;;;;;;5073170;28;20384;-45
2023/12/13 13:00:37;;;;;;;15.77;2.37;;;;;;;;;;5073084;28;20877;-45
2023/12/13 13:03:06;;;;;;;12.30;2.20;;;;;;;;;;5073093;28;20386;-45
2023/12/13 13:05:36;;;;;;;7.55;1.70;;;;;;;;;;5072245;28;20415;-45
2023/12/13 13:08:03;;;;;;;9.40;1.92;;;;;;;;;;5073008;28;20426;-45
2023/12/13 13:10:30;;;;;;;11.82;2.15;;;;;;;;;;5072865;28;20741;-45
2023/12/13 13:12:57;;;;;;;10.73;1.80;;;;;;;;;;5072878;28;20466;-45
2023/12/13 13:15:24;;;;;;;8.47;1.63;;;;;;;;;;5072649;28;20745;-45
2023/12/13 13:17:51;;;;;;;14.70;1.90;;;;;;;;;;5072766;28;20380;-44
2023/12/13 13:20:19;;;;;;;11.48;2.00;;;;;;;;;;5072711;28;20876;-45
2023/12/13 13:22:46;;;;;;;8.32;1.90;;;;;;;;;;5072641;28;20416;-45
2023/12/13 13:25:15;;;;;;;10.20;2.03;;;;;;;;;;5072345;28;20388;-45
2023/12/13 13:27:43;;;;;;;10.20;1.83;;;;;;;;;;5072416;28;20387;-45
2023/12/13 13:30:10;;;;;;;10.63;1.67;;;;;;;;;;5072518;28;20396;-45
2023/12/13 13:32:38;;;;;;;5.78;1.55;;;;;;;;;;5072467;28;20624;-45
2023/12/13 13:35:06;;;;;;;6.93;1.53;;;;;;;;;;5052382;28;20381;-45
2023/12/13 13:37:33;;;;;;;9.57;2.00;;;;;;;;;;5052431;28;20408;-45
2023/12/13 13:40:00;;;;;;;9.57;1.80;;;;;;;;;;5052373;28;20747;-44
2023/12/13 13:42:27;;;;;;;8.70;1.60;;;;;;;;;;5052259;28;20802;-45
2023/12/13 13:44:54;;;;;;;9.30;1.70;;;;;;;;;;5052215;28;20394;-45
2023/12/13 13:47:21;;;;;;;6.25;1.60;;;;;;;;;;5052287;28;20380;-45
2023/12/13 13:49:48;;;;;;;10.70;1.83;;;;;;;;;;5052219;28;20751;-47
2023/12/13 13:52:15;;;;;;;9.48;1.60;;;;;;;;;;5052165;28;20402;-45
2023/12/13 13:54:42;;;;;;;9.10;1.80;;;;;;;;;;5052022;28;20407;-45
2023/12/13 13:57:09;;;;;;;9.47;1.73;;;;;;;;;;5052045;28;20395;-45
2023/12/13 13:59:36;;;;;;;12.38;1.83;;;;;;;;;;5052058;28;20386;-45
2023/12/13 14:02:03;;;;;;;13.38;1.75;;;;;;;;;;5051922;28;20416;-45
2023/12/13 14:04:30;;;;;;;12.65;2.20;;;;;;;;;;5051808;28;20389;-45
2023/12/13 14:06:57;;;;;;;13.98;1.92;;;;;;;;;;5051849;28;20373;-46
2023/12/13 14:09:24;;;;;;;9.70;2.17;;;;;;;;;;5051813;28;20386;-45
2023/12/13 14:11:51;;;;;;;11.23;2.10;;;;;;;;;;5051814;28;20393;-46
2023/12/13 14:14:18;;;;;;;11.90;2.00;;;;;;;;;;5051600;28;20389;-45
2023/12/13 14:16:45;;;;;;;10.73;1.63;;;;;;;;;;5051040;28;20420;-44
2023/12/13 14:19:11;;;;;;;11.63;2.03;;;;;;;;;;5051281;28;20385;-44
2023/12/13 14:21:38;;;;;;;14.20;2.20;;;;;;;;;;5051533;28;20915;-44
2023/12/13 14:24:06;;;;;;;13.60;1.88;;;;;;;;;;5051427;28;20894;-45
2023/12/13 14:26:32;;;;;;;10.60;1.85;;;;;;;;;;5051458;28;20815;-44
2023/12/13 14:28:59;;;;;;;8.50;1.83;;;;;;;;;;5051435;28;20451;-45
2023/12/13 14:31:26;;;;;;;11.80;2.05;;;;;;;;;;5051391;28;21005;-44
2023/12/13 14:33:53;;;;;;;13.80;2.00;;;;;;;;;;5061317;28;20511;-44
2023/12/13 14:36:20;;;;;;;14.50;2.40;;;;;;;;;;5071226;28;20375;-44